Terminal Aerodrome Forecast
Issued by NWS Shreveport, LA

Home | Current Version | Previous Version | Text Only | Print | Product List | Glossary On
Versions: 1 2 3 4 5 6 7 8 9 10 11 12 13 14 15 16 17 18 19 20 21 22 23
000
FTUS44 KSHV 220500 RRA
TAFLFK
TAF
KLFK 220542Z 2206/2306 17005KT P6SM SKC
      TEMPO 2210/2214 OVC010
     FM221400 18007KT P6SM SCT025
      TEMPO 2214/2216 BKN020
     FM230000 16004KT P6SM SCT035=

USA.gov is the U.S. government's official web portal to all federal, state and local government web resources and services.